Latest Weather Observations for Tasman Island

IDT60901

Issued at 3:41 pm EST Sunday 30 August 2015 (issued every 10 minutes, with the page automatically refreshed every 10 minutes)

About weather observations | Map of Hobart area stations | Latest observations for Hobart area | Other Formats
Station Details ID: 094155 Name: TASMAN ISLAND Lat: -43.24 Lon: 148.00 Height: 240.0 m
Data from the previous 72 hours. | See also: Recent months at Tasman Island
Date/Time
EST
Tmp

°C
App
Tmp
°C
Dew
Point
°C
Rel
Hum
%
Delta-T

°C
Wind Press
QNH
hPa
Press
MSL
hPa
Rain
since
9 am
mm
Dir
 
Spd
km/h
Gust
km/h
Spd
kts
Gust
kts
30/03:30pm 6.9 2.8 4.6 85 1.0 S 15 24 8 13 1023.3 1023.6 0.2
30/03:00pm 7.1 2.7 4.6 84 1.1 S 17 26 9 14 1023.2 1023.5 0.2
30/02:30pm 7.0 2.4 5.6 91 0.6 SSE 19 32 10 17 1023.2 1023.5 0.2
30/02:00pm 7.3 3.6 6.4 94 0.4 S 15 24 8 13 1023.3 1023.6 0.2
30/01:30pm 7.4 3.4 6.7 95 0.3 S 17 26 9 14 1023.0 1023.4 0.2
30/01:00pm 7.0 2.6 6.4 96 0.3 S 19 28 10 15 1023.2 1023.5 0.2
30/12:30pm 7.4 2.8 6.3 93 0.5 SSW 20 30 11 16 1023.5 1023.8 0.2
30/12:00pm 6.9 2.2 6.2 95 0.3 S 20 37 11 20 1024.0 1024.3 0.2
30/11:30am 7.0 2.4 6.4 96 0.3 SSW 20 33 11 18 1024.3 1024.7 0.0
30/11:00am 6.2 -0.1 5.5 95 0.3 SSW 28 41 15 22 1024.4 1024.8 0.0
30/10:30am 6.7 1.1 5.2 90 0.7 SSW 24 33 13 18 1024.5 1024.9 0.0
30/10:00am 6.7 1.8 5.2 90 0.7 SSW 20 28 11 15 1024.6 1025.0 0.0
30/09:30am 6.4 1.6 5.5 94 0.4 S 20 33 11 18 1024.7 1025.1 0.0
30/09:00am 5.7 0.1 5.3 97 0.2 S 24 43 13 23 1024.6 1025.0 -
30/08:30am 5.2 -0.1 4.8 97 0.2 SSW 22 39 12 21 1024.6 1025.0 -
30/08:00am 5.1 -1.4 4.7 97 0.2 SSW 28 44 15 24 1024.3 1024.7 -
30/07:30am 5.0 -1.1 4.6 97 0.2 SSW 26 41 14 22 1024.2 1024.6 -
30/07:00am 5.1 -0.6 4.7 97 0.2 SSW 24 44 13 24 1023.8 1024.1 -
30/06:30am 5.0 -1.9 4.4 96 0.3 SSW 30 50 16 27 1023.6 1023.9 -
30/06:00am 5.3 -1.2 4.7 96 0.3 SSW 28 46 15 25 1023.4 1023.7 -
30/05:41am 5.2 -1.3 4.6 96 0.3 SSW 28 50 15 27 1023.3 1023.6 -
30/05:30am 5.2 -1.4 4.3 94 0.4 SSW 28 43 15 23 1023.3 1023.6 -
30/05:00am 5.6 -0.6 4.2 91 0.6 SSW 26 41 14 22 1023.2 1023.5 -
30/04:30am 6.0 0.5 3.8 86 0.9 S 22 35 12 19 1023.0 1023.4 -
30/04:00am 5.6 -0.7 3.9 89 0.7 SSW 26 39 14 21 1023.2 1023.5 -
30/03:30am 5.9 0.7 3.7 86 0.9 S 20 33 11 18 1023.2 1023.5 -
30/03:00am 5.4 -0.5 3.7 89 0.7 S 24 43 13 23 1023.4 1023.7 0.0
30/02:30am 5.9 0.1 2.5 79 1.4 S 22 41 12 22 1023.5 1023.8 -
30/02:05am 5.6 -1.3 2.8 82 1.2 SSW 28 46 15 25 1023.7 1024.0 -
30/02:00am 5.7 -1.3 3.9 88 0.8 SSW 30 41 16 22 1023.8 1024.1 -
30/01:52am 5.9 -1.1 4.2 89 0.7 SSW 30 48 16 26 1023.8 1024.1 -
30/01:30am 6.0 -0.1 2.5 78 1.5 SSW 24 41 13 22 1024.0 1024.3 -
30/01:00am 6.2 -1.6 1.7 73 1.8 SSW 32 44 17 24 1024.0 1024.3 -
30/12:30am 6.0 0.1 1.9 75 1.7 S 22 41 12 22 1024.0 1024.3 -
30/12:00am 6.1 0.0 2.6 78 1.5 SSW 24 44 13 24 1024.1 1024.5 -
 
Date/Time
EST
Tmp

°C
App
Tmp
°C
Dew
Point
°C
Rel
Hum
%
Delta-T

°C
Wind Press
QNH
hPa
Press
MSL
hPa
Rain
since
9 am
mm
Dir
 
Spd
km/h
Gust
km/h
Spd
kts
Gust
kts
29/11:37pm 5.9 -1.5 1.6 74 1.7 SSW 30 48 16 26 1024.0 1024.3 -
29/11:30pm 5.9 -0.7 1.8 75 1.7 SSW 26 41 14 22 1024.1 1024.5 -
29/11:00pm 6.1 -1.1 2.9 80 1.3 SSW 30 43 16 23 1024.1 1024.5 -
29/10:45pm 5.9 -1.1 2.2 77 1.5 SSW 28 48 15 26 1024.1 1024.5 -
29/10:30pm 6.0 -1.2 3.0 81 1.3 SSW 30 48 16 26 1024.1 1024.5 -
29/10:14pm 6.0 -1.9 2.5 78 1.5 SSW 33 52 18 28 1024.1 1024.5 -
29/10:00pm 5.9 -1.1 2.2 77 1.5 SSW 28 43 15 23 1024.2 1024.6 -
29/09:30pm 5.9 -1.9 2.0 76 1.6 SSW 32 48 17 26 1024.0 1024.3 -
29/09:00pm 5.8 -1.2 2.1 77 1.5 S 28 50 15 27 1024.1 1024.5 0.0
29/08:30pm 5.9 -1.4 2.4 78 1.4 S 30 50 16 27 1023.9 1024.2 -
29/08:02pm 6.2 -0.7 2.8 79 1.4 S 28 46 15 25 1023.6 1023.9 -
29/08:00pm 6.1 -1.2 2.6 78 1.5 S 30 46 16 25 1023.7 1024.0 -
29/07:30pm 6.1 -1.2 2.7 79 1.4 S 30 50 16 27 1023.3 1023.6 -
29/07:00pm 6.1 -1.2 2.7 79 1.4 S 30 50 16 27 1023.4 1023.7 -
29/06:33pm 6.2 -1.1 2.7 78 1.5 S 30 48 16 26 1022.9 1023.3 -
29/06:30pm 6.2 -1.4 2.7 78 1.5 S 32 48 17 26 1022.9 1023.3 -
29/06:00pm 6.2 -1.0 3.2 81 1.3 SSW 30 50 16 27 1022.5 1022.9 -
29/05:35pm 6.1 -1.6 3.3 82 1.2 SSW 33 52 18 28 1022.3 1022.7 -
29/05:30pm 6.0 -1.7 3.3 83 1.1 SSW 33 48 18 26 1022.2 1022.6 -
29/05:00pm 6.2 -0.5 3.5 83 1.1 SSW 28 46 15 25 1021.9 1022.3 -
29/04:30pm 6.4 -1.1 3.6 82 1.2 S 32 56 17 30 1021.6 1022.0 -
29/04:00pm 6.4 -0.3 3.9 84 1.1 S 28 50 15 27 1021.4 1021.8 -
29/03:35pm 6.5 -0.9 3.8 83 1.2 S 32 50 17 27 1021.6 1022.0 -
29/03:30pm 6.4 -1.6 3.7 83 1.2 S 35 54 19 29 1021.4 1021.8 -
29/03:00pm 6.3 -1.2 4.3 87 0.9 S 33 54 18 29 1021.1 1021.5 -
29/02:30pm 6.5 -0.9 5.0 90 0.7 S 33 54 18 29 1021.0 1021.4 -
29/02:06pm 6.4 -1.1 4.7 89 0.7 S 33 59 18 32 1020.7 1021.1 -
29/02:00pm 6.5 -0.9 4.8 89 0.7 S 33 52 18 28 1020.7 1021.1 -
29/01:30pm 6.7 -1.1 4.7 87 0.9 S 35 57 19 31 1020.6 1021.0 -
29/01:00pm 6.7 -1.1 4.9 88 0.8 S 35 56 19 30 1020.7 1021.1 -
29/12:30pm 6.7 -1.6 4.4 85 1.0 S 37 59 20 32 1020.8 1021.2 -
29/12:00pm 6.9 -1.2 5.2 89 0.8 S 37 61 20 33 1020.8 1021.2 -
29/11:30am 6.9 -1.2 5.4 90 0.7 S 37 57 20 31 1020.9 1021.3 -
29/11:00am 6.9 -0.8 5.4 90 0.7 S 35 59 19 32 1020.8 1021.2 0.2
29/10:30am 6.8 -0.8 5.6 92 0.5 S 35 57 19 31 1020.8 1021.2 0.2
29/10:00am 6.8 -1.7 5.3 90 0.7 S 39 63 21 34 1020.7 1021.1 0.2
29/09:30am 7.0 -1.4 5.8 92 0.5 S 39 78 21 42 1020.5 1020.8 0.2
29/09:00am 6.6 -1.4 5.7 94 0.4 S 37 67 20 36 1020.2 1020.5 11.2
29/08:30am 6.7 -1.6 6.0 95 0.3 S 39 70 21 38 1019.9 1020.2 11.2
29/08:00am 7.2 -1.0 6.5 95 0.3 S 39 59 21 32 1019.6 1019.9 11.2
29/07:30am 7.1 -1.9 6.4 95 0.3 S 43 67 23 36 1018.7 1019.1 11.2
29/07:00am 7.2 -1.9 6.6 96 0.3 SSE 44 69 24 37 1018.3 1018.7 11.0
29/06:30am 7.4 -2.8 7.0 97 0.2 SSE 50 76 27 41 1017.8 1018.2 10.4
29/06:00am 7.6 -1.4 7.2 97 0.2 SSE 44 82 24 44 1017.4 1017.8 9.8
29/05:30am 7.6 -2.1 7.3 98 0.1 SSE 48 78 26 42 1017.2 1017.6 9.2
29/05:21am 7.5 -1.0 7.1 97 0.2 SSE 41 78 22 42 1016.9 1017.2 8.8
29/05:01am 7.1 1.0 6.8 98 0.1 SSE 28 50 15 27 1017.2 1017.6 8.2
29/05:00am 7.1 1.0 6.8 98 0.1 SSE 28 50 15 27 1017.2 1017.6 8.2
29/04:30am 6.8 1.4 6.5 98 0.1 S 24 37 13 20 1017.2 1017.6 7.4
29/04:00am 6.2 -0.5 5.8 97 0.2 SSW 30 41 16 22 1017.1 1017.5 7.2
29/03:30am 5.3 -0.8 4.7 96 0.3 SSW 26 39 14 21 1017.1 1017.5 6.6
29/03:00am 5.1 0.7 4.5 96 0.3 SSW 17 28 9 15 1017.2 1017.6 6.2
29/02:30am 5.1 -0.3 4.4 95 0.3 S 22 37 12 20 1017.4 1017.8 6.2
29/02:00am 4.9 -0.9 4.2 95 0.3 S 24 43 13 23 1017.4 1017.8 6.0
29/01:30am 4.7 -2.3 4.0 95 0.3 SSE 30 46 16 25 1017.2 1017.6 5.8
29/01:01am 5.2 -2.1 4.5 95 0.3 S 32 50 17 27 1016.7 1017.0 5.4
29/01:00am 5.2 -2.1 4.5 95 0.3 S 32 50 17 27 1016.7 1017.0 5.4
29/12:30am 5.7 -1.2 4.8 94 0.4 S 30 50 16 27 1016.7 1017.0 5.2
29/12:20am 5.9 -0.5 5.0 94 0.4 S 28 48 15 26 1016.6 1016.9 5.0
29/12:00am 5.4 -1.9 4.5 94 0.4 S 32 50 17 27 1016.4 1016.7 4.6
 
Date/Time
EST
Tmp

°C
App
Tmp
°C
Dew
Point
°C
Rel
Hum
%
Delta-T

°C
Wind Press
QNH
hPa
Press
MSL
hPa
Rain
since
9 am
mm
Dir
 
Spd
km/h
Gust
km/h
Spd
kts
Gust
kts
28/11:38pm 6.5 -0.2 5.6 94 0.4 S 30 54 16 29 1016.3 1016.6 4.6
28/11:30pm 6.3 -0.8 5.4 94 0.4 S 32 50 17 27 1016.2 1016.5 4.6
28/11:00pm 5.6 -2.2 4.7 94 0.4 S 35 57 19 31 1015.9 1016.2 4.6
28/10:30pm 5.5 -3.8 4.8 95 0.3 SSW 43 70 23 38 1016.0 1016.3 4.6
28/10:00pm 5.2 -5.9 4.5 95 0.3 SW 52 83 28 45 1015.9 1016.2 4.0
28/09:30pm 5.3 -7.1 4.4 94 0.4 SW 59 91 32 49 1015.5 1015.8 3.8
28/09:00pm 5.0 -7.5 4.3 95 0.3 SW 59 91 32 49 1016.4 1016.7 3.6
28/08:30pm 3.8 -8.9 3.1 95 0.3 SSW 59 85 32 46 1016.8 1017.1 3.0
28/08:10pm 4.6 -3.4 3.7 94 0.4 SW 35 83 19 45 1017.0 1017.3 2.2
28/08:00pm 3.3 -6.1 2.4 94 0.4 SW 41 89 22 48 1017.5 1017.9 2.2
28/07:54pm 3.5 -8.9 2.5 93 0.4 SW 57 95 31 51 1017.6 1018.0 2.2
28/07:51pm 3.4 -9.8 2.2 92 0.5 SW 61 95 33 51 1017.6 1018.0 2.0
28/07:50pm 3.6 -9.2 2.4 92 0.5 SW 59 95 32 51 1017.5 1017.9 1.8
28/07:42pm 3.8 -5.9 2.6 92 0.5 SW 43 83 23 45 1017.6 1018.0 1.8
28/07:35pm 4.3 -6.7 3.0 91 0.5 SW 50 80 27 43 1017.9 1018.3 1.6
28/07:30pm 4.1 -8.1 2.8 91 0.5 SW 56 83 30 45 1018.0 1018.4 1.6
28/07:00pm 3.8 -7.7 2.2 89 0.6 SW 52 78 28 42 1018.9 1019.2 1.4
28/06:45pm 3.5 -7.2 2.3 92 0.5 SSW 48 83 26 45 1019.1 1019.4 1.4
28/06:30pm 2.6 -7.3 1.7 94 0.4 SSW 43 74 23 40 1019.8 1020.1 1.2
28/06:00pm 4.4 -6.2 1.1 79 1.3 SW 46 74 25 40 1020.0 1020.3 0.6
28/05:30pm 3.2 -8.4 -1.0 74 1.5 SSW 50 72 27 39 1020.4 1020.7 0.4
28/05:00pm 3.8 -7.3 0.1 77 1.4 SW 48 74 26 40 1020.6 1021.0 0.4
28/04:30pm 4.2 -6.1 0.0 74 1.6 SSW 44 83 24 45 1020.7 1021.1 0.4
28/04:00pm 4.8 -6.0 -0.2 70 1.9 SSW 46 76 25 41 1021.3 1021.7 0.4
28/03:30pm 4.1 -6.0 1.6 84 1.0 SSW 44 69 24 37 1021.7 1022.1 0.4
28/03:00pm 2.9 -7.1 0.8 86 0.8 SSW 43 76 23 41 1021.8 1022.2 0.4
28/02:30pm 4.8 -5.4 -0.4 69 2.0 SSW 43 61 23 33 1022.3 1022.7 0.0
28/02:11pm 4.3 -7.7 1.5 82 1.1 SSW 54 76 29 41 1022.3 1022.7 0.0
28/02:08pm 4.6 -6.7 0.9 77 1.5 SSW 50 76 27 41 1022.1 1022.5 0.0
28/02:02pm 5.8 -4.0 -0.3 65 2.4 SSW 41 61 22 33 1022.3 1022.7 0.0
28/02:00pm 6.1 -4.0 0.2 66 2.3 SSW 43 61 23 33 1022.5 1022.9 0.0
28/01:40pm 5.7 -3.1 1.4 74 1.7 SSW 37 57 20 31 1022.8 1023.2 0.0
28/01:30pm 4.8 -4.1 0.8 75 1.6 SSW 37 50 20 27 1022.9 1023.3 0.0
28/01:00pm 5.0 -3.4 1.3 77 1.5 S 35 59 19 32 1023.4 1023.7 0.0
28/12:31pm 5.6 -4.7 0.2 68 2.1 SSW 44 67 24 36 1023.6 1023.9 0.0
28/12:30pm 5.8 -4.5 0.0 66 2.3 SSW 44 61 24 33 1023.5 1023.8 0.0
28/12:06pm 5.8 -3.6 0.2 67 2.2 SSW 39 57 21 31 1023.9 1024.2 0.0
28/12:00pm 6.3 -3.5 -0.2 63 2.5 SSW 41 59 22 32 1024.1 1024.5 0.0
28/11:47am 6.5 -2.5 0.4 65 2.4 SSW 37 59 20 32 1024.2 1024.6 0.0
28/11:30am 6.2 -2.8 -0.1 64 2.5 SSW 37 54 20 29 1024.4 1024.8 0.0
28/11:03am 7.3 -0.3 0.7 63 2.7 SSW 30 54 16 29 1024.4 1024.8 0.0
28/11:00am 7.1 -1.0 -0.4 59 2.9 SSW 32 46 17 25 1024.5 1024.9 0.0
28/10:30am 6.1 -1.7 -1.1 60 2.7 S 30 54 16 29 1024.5 1024.9 0.0
28/10:05am 5.5 -1.7 0.7 71 1.9 S 28 46 15 25 1024.6 1025.0 0.0
28/10:00am 5.6 -1.6 0.8 71 1.9 SSW 28 43 15 23 1024.6 1025.0 0.0
28/09:30am 5.7 -2.2 0.9 71 1.9 S 32 52 17 28 1024.6 1025.0 0.0
28/09:06am 5.2 -1.9 1.1 75 1.6 SSW 28 48 15 26 1024.5 1024.9 0.0
28/09:00am 5.5 -1.5 2.0 78 1.4 SSW 28 43 15 23 1024.7 1025.1 0.6
28/08:33am 4.2 -2.8 1.7 84 1.0 S 28 57 15 31 1024.4 1024.8 0.6
28/08:30am 4.3 -2.0 1.7 83 1.0 SSW 24 48 13 26 1024.4 1024.8 0.6
28/08:00am 4.7 -4.4 2.1 83 1.0 SSW 39 61 21 33 1024.4 1024.8 0.6
28/07:39am 4.8 -2.5 -0.2 70 1.9 SSW 28 46 15 25 1024.3 1024.7 0.6
28/07:30am 4.8 -2.3 1.1 77 1.5 SSW 28 43 15 23 1024.3 1024.7 0.6
28/07:00am 3.8 -3.6 1.8 87 0.8 SSW 30 50 16 27 1024.1 1024.5 0.6
28/06:32am 3.5 -4.0 1.2 85 0.9 SSW 30 54 16 29 1023.9 1024.2 0.6
28/06:30am 3.5 -3.2 1.4 86 0.8 S 26 43 14 23 1023.9 1024.2 0.6
28/06:05am 5.0 -3.0 0.4 72 1.8 SSW 32 50 17 27 1023.6 1023.9 0.6
28/06:00am 4.8 -2.9 -0.2 70 1.9 SSW 30 46 16 25 1023.6 1023.9 0.6
28/05:34am 4.9 -3.7 0.3 72 1.8 SSW 35 56 19 30 1023.3 1023.6 0.6
28/05:30am 4.9 -3.6 0.7 74 1.6 SSW 35 52 19 28 1023.3 1023.6 0.6
28/05:00am 4.9 -4.2 -0.9 66 2.2 SSW 37 56 20 30 1023.0 1023.4 0.6
28/04:46am 5.0 -4.4 -0.2 69 2.0 SSW 39 59 21 32 1022.9 1023.3 0.6
28/04:30am 5.4 -3.8 1.1 74 1.7 SSW 39 56 21 30 1022.8 1023.2 0.6
28/04:05am 5.4 -2.6 0.2 69 2.0 SSW 32 50 17 27 1022.7 1023.1 0.4
28/04:00am 5.3 -2.0 0.3 70 1.9 SSW 28 46 15 25 1022.6 1023.0 0.4
28/03:32am 5.5 -1.5 2.2 79 1.4 S 28 48 15 26 1022.5 1022.9 0.4
28/03:30am 5.3 -1.3 2.0 79 1.3 S 26 48 14 26 1022.5 1022.9 0.4
28/03:05am 5.3 -1.6 2.5 82 1.2 S 28 54 15 29 1022.5 1022.9 0.4
28/03:00am 5.2 -1.7 2.6 83 1.1 S 28 46 15 25 1022.6 1023.0 0.4
28/02:46am 5.2 -1.5 3.7 90 0.6 S 28 48 15 26 1022.4 1022.8 0.4
28/02:30am 5.6 -0.6 4.4 92 0.5 S 26 50 14 27 1022.5 1022.9 0.2
28/02:00am 5.6 -1.0 4.2 91 0.6 S 28 52 15 28 1022.2 1022.6 0.2
28/01:30am 6.0 -0.8 5.1 94 0.4 S 30 50 16 27 1022.0 1022.4 0.2
28/01:00am 6.0 -0.4 5.3 95 0.3 S 28 52 15 28 1021.8 1022.2 0.2
28/12:30am 6.5 -0.2 5.5 93 0.4 S 30 46 16 25 1021.8 1022.2 0.2
28/12:01am 6.6 0.4 6.0 96 0.3 S 28 46 15 25 1021.7 1022.1 0.2
28/12:00am 6.6 0.0 6.0 96 0.3 S 30 46 16 25 1021.7 1022.1 0.2
 
Date/Time
EST
Tmp

°C
App
Tmp
°C
Dew
Point
°C
Rel
Hum
%
Delta-T

°C
Wind Press
QNH
hPa
Press
MSL
hPa
Rain
since
9 am
mm
Dir
 
Spd
km/h
Gust
km/h
Spd
kts
Gust
kts
27/11:40pm 7.5 2.2 6.6 94 0.4 SW 24 50 13 27 1021.5 1021.9 0.0
27/11:30pm 7.7 4.0 6.5 92 0.6 WSW 15 39 8 21 1021.6 1022.0 0.0
27/11:00pm 7.5 3.4 6.0 90 0.7 SW 17 37 9 20 1021.8 1022.2 0.0
27/10:30pm 7.8 3.3 6.1 89 0.8 SW 19 35 10 19 1022.0 1022.4 0.0
27/10:00pm 8.0 3.9 6.0 87 0.9 SW 17 44 9 24 1021.9 1022.3 0.0
27/09:30pm 7.9 4.0 5.5 85 1.1 SW 15 32 8 17 1022.3 1022.7 0.0
27/09:00pm 8.2 2.7 5.7 84 1.1 SW 24 44 13 24 1022.3 1022.7 0.0
27/08:30pm 8.4 4.2 5.7 83 1.2 SW 17 30 9 16 1022.2 1022.6 0.0
27/08:00pm 8.4 2.8 5.5 82 1.3 SW 24 35 13 19 1022.2 1022.6 0.0
27/07:30pm 8.3 2.7 5.2 81 1.4 SW 24 35 13 19 1022.1 1022.5 0.0
27/07:00pm 8.3 3.4 4.9 79 1.5 SW 20 32 11 17 1021.9 1022.3 0.0
27/06:30pm 8.1 3.7 5.0 81 1.4 SSW 17 26 9 14 1021.7 1022.1 0.0
27/06:00pm 8.2 4.0 5.5 83 1.2 SSW 17 24 9 13 1021.7 1022.1 0.0
27/05:30pm 7.9 4.1 6.0 88 0.9 SSW 15 22 8 12 1021.6 1022.0 0.0
27/05:00pm 8.1 4.3 5.6 84 1.1 SSW 15 24 8 13 1021.5 1021.9 0.0
27/04:30pm 8.2 4.8 5.8 85 1.1 SW 13 20 7 11 1021.4 1021.8 0.0
27/04:00pm 8.4 4.5 6.9 90 0.7 SW 17 22 9 12 1021.4 1021.8 0.0

Latest Capital City Observations: Canberra | Sydney | Melbourne | Brisbane | Adelaide | Perth | Hobart | Darwin

Other Formats:

Comma delimited format used in spreadsheet applications
http://www.bom.gov.au/fwo/IDT60901/IDT60901.95986.axf

JavaScript Object Notation format (JSON) in row-major order
http://www.bom.gov.au/fwo/IDT60901/IDT60901.95986.json